Time;durP1;ratioP1;P1;durP2;ratioP2;P2;SDS_P1;SDS_P2;PMS_P1;PMS_P2;Temp;Humidity;BMP_temperature;BMP_pressure;BME280_temperature;BME280_humidity;BME280_pressure;Samples;Min_cycle;Max_cycle;Signal;HPM_P1;HPM_P2
2023/06/14 00:02:08;;;;;;;4.05;1.58;;;;;;;16.45;84.85;101806.88;4916146;28;20055;-78
2023/06/14 00:04:38;;;;;;;4.18;1.10;;;;;;;16.44;85.60;101802.44;4949187;29;20529;-76
2023/06/14 00:07:08;;;;;;;1.95;1.33;;;;;;;16.38;86.14;101804.22;4967110;28;20062;-77
2023/06/14 00:09:38;;;;;;;1.55;1.20;;;;;;;16.31;86.89;101801.59;4954353;28;20058;-78
2023/06/14 00:12:06;;;;;;;1.05;0.90;;;;;;;16.25;87.06;101806.97;4954671;28;20069;-79
2023/06/14 00:14:34;;;;;;;1.77;1.45;;;;;;;16.19;88.14;101807.88;4957144;28;20043;-77
2023/06/14 00:17:02;;;;;;;4.05;1.30;;;;;;;16.15;88.21;101811.44;4943043;29;20066;-77
2023/06/14 00:19:32;;;;;;;2.88;1.40;;;;;;;16.12;87.92;101804.38;4937348;28;20054;-78
2023/06/14 00:22:00;;;;;;;1.20;1.10;;;;;;;16.09;89.01;101811.47;4927321;29;20054;-77
2023/06/14 00:24:28;;;;;;;3.10;1.55;;;;;;;16.03;89.27;101804.41;4928711;28;20047;-78
2023/06/14 00:26:55;;;;;;;4.60;2.22;;;;;;;15.99;90.01;101810.59;4945371;29;20644;-77
2023/06/14 00:29:24;;;;;;;4.25;1.42;;;;;;;15.95;90.50;101808.84;4945394;28;20058;-78
2023/06/14 00:31:51;;;;;;;1.80;1.35;;;;;;;15.95;90.62;101803.53;4936945;29;20434;-77
2023/06/14 00:34:18;;;;;;;1.73;1.20;;;;;;;15.93;91.55;101810.63;4912146;28;20150;-76
2023/06/14 00:36:46;;;;;;;2.78;1.40;;;;;;;15.90;91.75;101810.66;4961069;28;20039;-77
2023/06/14 00:39:15;;;;;;;3.97;1.17;;;;;;;15.89;92.59;101806.22;4949550;28;20055;-77
2023/06/14 00:41:42;;;;;;;1.30;1.20;;;;;;;15.84;92.88;101806.25;4925203;28;20046;-76
2023/06/14 00:44:11;;;;;;;2.85;1.30;;;;;;;15.80;93.17;101796.50;4942443;28;20063;-77
2023/06/14 00:46:41;;;;;;;6.45;1.70;;;;;;;15.76;94.05;101806.28;4919938;29;20051;-77
2023/06/14 00:49:10;;;;;;;1.60;1.45;;;;;;;15.73;94.53;101802.72;4921743;28;20058;-77
2023/06/14 00:51:39;;;;;;;3.22;1.40;;;;;;;15.71;94.88;101804.50;4949174;28;20055;-78
2023/06/14 00:54:06;;;;;;;1.30;1.10;;;;;;;15.69;95.67;101812.47;4930772;28;20059;-78
2023/06/14 00:56:37;;;;;;;2.75;1.70;;;;;;;15.65;95.71;101804.50;4969737;28;20051;-78
2023/06/14 00:59:05;;;;;;;5.38;1.30;;;;;;;15.61;95.82;101806.25;4931902;28;20050;-77
2023/06/14 01:01:33;;;;;;;4.53;1.45;;;;;;;15.60;96.97;101808.06;4949752;28;20569;-78
2023/06/14 01:04:01;;;;;;;3.20;1.63;;;;;;;15.60;97.31;101802.72;4893866;29;20051;-77
2023/06/14 01:06:50;;;;;;;4.40;1.33;;;;;;;15.57;97.45;101802.72;4928273;29;20063;-77
2023/06/14 01:09:53;;;;;;;6.32;1.70;;;;;;;15.54;97.38;101809.84;4967762;28;20414;-78
2023/06/14 01:12:35;;;;;;;1.35;1.17;;;;;;;15.52;97.75;101807.19;4908313;28;20058;-77
2023/06/14 01:15:03;;;;;;;1.88;1.40;;;;;;;15.50;98.10;101803.66;4983288;28;20055;-78
2023/06/14 01:17:32;;;;;;;2.13;1.50;;;;;;;15.50;98.85;101818.69;4940141;28;20047;-77
2023/06/14 01:20:07;;;;;;;3.72;1.60;;;;;;;15.49;98.96;101820.47;4891640;29;20418;-76
2023/06/14 01:22:35;;;;;;;1.50;1.25;;;;;;;15.46;99.02;101801.88;4962965;28;20047;-76
2023/06/14 01:25:03;;;;;;;3.38;1.35;;;;;;;15.44;99.13;101811.63;4912951;29;20069;-76
2023/06/14 01:27:32;;;;;;;2.35;1.50;;;;;;;15.38;99.63;101809.84;4964505;28;20059;-77
2023/06/14 01:30:02;;;;;;;6.63;1.73;;;;;;;15.32;100.00;101809.88;4938483;29;20056;-79
2023/06/14 01:32:30;;;;;;;2.15;1.42;;;;;;;15.28;100.00;101809.88;4934831;28;20058;-78
2023/06/14 01:35:03;;;;;;;2.95;1.58;;;;;;;15.26;100.00;101811.66;4895310;29;20063;-77
2023/06/14 01:37:33;;;;;;;4.88;1.60;;;;;;;15.23;100.00;101812.53;4957440;28;20062;-76
2023/06/14 01:40:06;;;;;;;4.10;1.60;;;;;;;15.26;100.00;101816.97;4916257;29;20063;-77
2023/06/14 01:42:36;;;;;;;3.38;1.70;;;;;;;15.22;100.00;101821.41;4931116;28;20047;-78
2023/06/14 01:45:09;;;;;;;2.85;1.20;;;;;;;15.19;100.00;101822.25;4931332;29;20140;-77
2023/06/14 01:47:36;;;;;;;3.55;1.63;;;;;;;15.18;100.00;101817.84;4961934;28;20056;-76
2023/06/14 01:50:05;;;;;;;1.60;1.30;;;;;;;15.19;100.00;101822.25;4911017;28;20055;-77
2023/06/14 01:52:32;;;;;;;4.32;1.55;;;;;;;15.18;100.00;101820.50;4965860;28;20047;-77
2023/06/14 01:55:02;;;;;;;3.50;1.73;;;;;;;15.16;100.00;101821.38;4963089;28;20044;-78
2023/06/14 01:57:31;;;;;;;;;;;;;;;15.12;100.00;101812.56;4937547;28;20066;-77
2023/06/14 01:59:59;;;;;;;4.80;1.52;;;;;;;15.10;100.00;101813.41;4937617;28;20428;-77
2023/06/14 02:02:27;;;;;;;3.05;1.50;;;;;;;15.09;100.00;101822.28;4973962;28;20061;-77
2023/06/14 02:04:57;;;;;;;2.60;1.88;;;;;;;15.07;100.00;101821.41;4961659;28;20675;-77
2023/06/14 02:07:25;;;;;;;2.00;1.50;;;;;;;15.07;100.00;101824.94;4920367;28;20047;-77
2023/06/14 02:09:52;;;;;;;2.72;1.60;;;;;;;15.04;100.00;101827.56;4922686;29;20039;-77
2023/06/14 02:12:22;;;;;;;5.50;2.22;;;;;;;15.01;100.00;101819.63;4949435;29;20055;-78
2023/06/14 02:14:51;;;;;;;4.90;1.90;;;;;;;15.00;100.00;101824.03;4953615;28;20043;-77
2023/06/14 02:17:18;;;;;;;1.77;1.67;;;;;;;14.99;100.00;101821.41;4950551;29;20056;-76
2023/06/14 02:19:46;;;;;;;2.10;1.70;;;;;;;14.96;100.00;101821.38;4943894;28;20043;-76
2023/06/14 02:22:14;;;;;;;5.07;1.77;;;;;;;14.91;100.00;101813.41;4909422;28;20051;-78
2023/06/14 02:24:43;;;;;;;2.65;1.80;;;;;;;14.88;100.00;101818.72;4967454;28;20047;-77
2023/06/14 02:27:10;;;;;;;3.60;1.77;;;;;;;14.83;100.00;101812.53;4948218;29;20055;-78
2023/06/14 02:29:38;;;;;;;3.45;1.90;;;;;;;14.82;100.00;101822.25;4932069;28;20052;-78
2023/06/14 02:32:07;;;;;;;2.50;1.67;;;;;;;14.80;100.00;101823.13;4943481;29;20047;-77
2023/06/14 02:34:34;;;;;;;4.43;2.30;;;;;;;14.76;100.00;101816.03;4938611;28;20051;-78
2023/06/14 02:37:05;;;;;;;2.67;1.90;;;;;;;14.75;100.00;101828.44;4963279;28;20812;-78
2023/06/14 02:39:32;;;;;;;;;;;;;;;14.74;100.00;101831.09;4911004;28;20070;-78
2023/06/14 02:42:00;;;;;;;2.47;1.80;;;;;;;14.70;100.00;101822.22;4924853;29;19955;-77
2023/06/14 02:44:28;;;;;;;1.88;1.75;;;;;;;14.69;100.00;101827.53;4949107;28;20051;-77
2023/06/14 02:46:56;;;;;;;3.10;1.70;;;;;;;14.70;100.00;101824.00;4941400;28;20438;-77
2023/06/14 02:49:24;;;;;;;3.63;2.25;;;;;;;14.70;100.00;101819.56;4926735;29;20518;-77
2023/06/14 02:51:51;;;;;;;2.22;1.67;;;;;;;14.69;100.00;101822.22;4946657;28;20058;-76
2023/06/14 02:54:18;;;;;;;3.97;1.98;;;;;;;14.67;100.00;101827.56;4914300;28;20066;-77
2023/06/14 02:56:46;;;;;;;2.40;1.70;;;;;;;14.68;100.00;101821.34;4958356;28;20048;-78
2023/06/14 02:59:14;;;;;;;6.03;2.47;;;;;;;14.67;100.00;101827.56;4939952;29;20051;-76
2023/06/14 03:01:42;;;;;;;4.25;2.47;;;;;;;14.65;100.00;101824.00;4945784;28;20055;-77
2023/06/14 03:04:14;;;;;;;5.65;2.00;;;;;;;14.65;100.00;101823.09;4953957;29;20066;-77
2023/06/14 03:06:44;;;;;;;3.30;1.80;;;;;;;14.65;100.00;101826.66;4967747;28;20052;-77
2023/06/14 03:09:13;;;;;;;2.70;2.10;;;;;;;14.67;100.00;101829.28;4928417;28;20058;-76
2023/06/14 03:11:41;;;;;;;4.65;2.10;;;;;;;14.68;100.00;101834.59;4934247;28;20059;-78
2023/06/14 03:14:08;;;;;;;8.15;2.30;;;;;;;14.68;100.00;101829.31;4935102;29;20051;-78
2023/06/14 03:16:37;;;;;;;4.70;2.05;;;;;;;14.69;100.00;101835.50;4925408;29;20047;-78
2023/06/14 03:19:07;;;;;;;2.47;2.20;;;;;;;14.71;100.00;101839.06;4951821;29;20039;-77
2023/06/14 03:21:35;;;;;;;3.85;2.00;;;;;;;14.71;100.00;101839.06;4940864;28;20043;-78
2023/06/14 03:24:03;;;;;;;4.57;2.50;;;;;;;14.74;100.00;101844.34;4937364;29;20039;-78
2023/06/14 03:26:33;;;;;;;5.07;2.25;;;;;;;14.74;100.00;101849.66;4915531;28;20059;-78
2023/06/14 03:29:01;;;;;;;2.95;1.90;;;;;;;14.76;100.00;101846.16;4929407;29;20054;-78
2023/06/14 03:31:32;;;;;;;3.20;2.17;;;;;;;14.77;100.00;101845.25;4978887;28;20042;-78
2023/06/14 03:34:03;;;;;;;2.55;1.80;;;;;;;14.81;100.00;101854.09;4936767;29;20046;-76
2023/06/14 03:36:30;;;;;;;2.85;2.15;;;;;;;14.84;100.00;101859.41;4934577;29;20055;-77
2023/06/14 03:38:59;;;;;;;2.90;2.47;;;;;;;14.85;100.00;101857.66;4951515;28;20047;-77
2023/06/14 03:41:27;;;;;;;6.50;2.30;;;;;;;14.85;100.00;101855.00;4923001;28;20502;-77
2023/06/14 03:43:54;;;;;;;3.83;2.15;;;;;;;14.84;100.00;101862.06;4958415;28;20051;-78
2023/06/14 03:46:23;;;;;;;4.28;2.33;;;;;;;14.87;100.00;101861.19;4953967;29;20055;-77
2023/06/14 03:48:50;;;;;;;2.70;2.03;;;;;;;14.87;100.00;101864.72;4925306;29;20056;-78
2023/06/14 03:51:18;;;;;;;2.80;2.25;;;;;;;14.92;100.00;101864.75;4927603;29;20062;-77
2023/06/14 03:53:46;;;;;;;2.85;2.00;;;;;;;14.93;100.00;101861.19;4935669;29;20078;-77
2023/06/14 03:56:37;;;;;;;2.53;2.33;;;;;;;14.97;100.00;101870.91;4921755;28;20066;-77
2023/06/14 03:59:07;;;;;;;5.07;2.30;;;;;;;14.99;100.00;101867.41;4942248;28;20055;-79
2023/06/14 04:01:35;;;;;;;3.33;2.20;;;;;;;15.06;100.00;101878.88;4884071;28;20477;-76
2023/06/14 04:04:02;;;;;;;5.15;2.63;;;;;;;15.25;100.00;101863.84;4964242;28;20058;-79
2023/06/14 04:06:34;;;;;;;7.03;2.28;;;;;;;15.49;100.00;101873.59;4935699;28;21162;-78
2023/06/14 04:09:04;;;;;;;6.35;2.60;;;;;;;16.05;100.00;101878.81;4935134;29;20051;-77
2023/06/14 04:11:33;;;;;;;7.75;2.85;;;;;;;16.79;100.00;101870.53;4941300;28;20915;-79
2023/06/14 04:14:02;;;;;;;5.47;2.00;;;;;;;17.51;100.00;101862.88;4934267;29;20054;-77
2023/06/14 04:16:30;;;;;;;2.40;2.17;;;;;;;18.28;100.00;101869.19;4926497;29;20813;-77
2023/06/14 04:19:00;;;;;;;6.80;2.60;;;;;;;18.87;100.00;101863.94;4938081;28;20070;-77
2023/06/14 04:21:28;;;;;;;2.53;2.17;;;;;;;19.37;100.00;101872.03;4948174;28;20059;-77
2023/06/14 04:24:01;;;;;;;;;;;;;;;19.63;99.48;101883.16;4939452;28;20070;-77
2023/06/14 04:26:33;;;;;;;2.63;2.30;;;;;;;19.92;100.00;101870.19;4945075;28;19926;-77
2023/06/14 04:29:02;;;;;;;5.35;3.80;;;;;;;20.38;100.00;101877.28;4904333;28;20043;-77
2023/06/14 04:31:33;;;;;;;6.40;2.40;;;;;;;21.00;98.69;101872.34;4945311;28;20055;-77
2023/06/14 04:34:05;;;;;;;3.17;2.13;;;;;;;21.22;94.52;101877.16;4961389;28;20039;-76
2023/06/14 04:36:38;;;;;;;6.45;2.30;;;;;;;21.36;93.11;101877.69;4961458;28;20055;-77
2023/06/14 04:39:06;;;;;;;3.15;2.13;;;;;;;21.58;90.08;101874.47;4930599;28;20042;-76
2023/06/14 04:41:34;;;;;;;7.70;2.50;;;;;;;21.75;88.76;101877.59;4936369;29;20051;-76
2023/06/14 04:44:04;;;;;;;3.22;2.20;;;;;;;21.97;86.21;101877.00;4909294;28;20051;-76
2023/06/14 04:46:45;;;;;;;5.70;2.33;;;;;;;22.19;85.12;101875.47;4926361;29;20051;-77
2023/06/14 04:49:23;;;;;;;6.78;2.38;;;;;;;22.14;83.01;101881.91;4931519;28;20063;-76
2023/06/14 04:51:59;;;;;;;2.45;2.17;;;;;;;22.06;82.49;101881.22;4960462;28;20521;-77
2023/06/14 04:54:32;;;;;;;6.60;2.28;;;;;;;22.36;82.81;101898.28;4946517;28;20051;-78
2023/06/14 04:57:02;;;;;;;3.45;2.10;;;;;;;22.82;79.66;101894.19;4954465;28;20051;-77
2023/06/14 04:59:33;;;;;;;5.03;1.98;;;;;;;23.05;78.24;101896.19;4890544;28;20055;-77
2023/06/14 05:02:01;;;;;;;2.10;1.90;;;;;;;23.48;75.80;101900.13;4968426;28;20055;-78
2023/06/14 05:04:29;;;;;;;6.75;2.40;;;;;;;23.66;73.21;101903.97;4935122;28;20046;-77
2023/06/14 05:06:58;;;;;;;4.65;2.22;;;;;;;23.79;71.30;101903.59;4924396;28;20047;-76
2023/06/14 05:09:25;;;;;;;4.05;2.20;;;;;;;23.90;70.77;101906.78;4933683;28;20050;-76
2023/06/14 05:11:53;;;;;;;4.85;2.00;;;;;;;24.11;69.20;101911.38;4937594;28;20051;-76
2023/06/14 05:14:22;;;;;;;4.80;2.05;;;;;;;24.01;68.91;101920.75;4905483;28;21528;-76
2023/06/14 05:16:51;;;;;;;2.92;1.85;;;;;;;23.95;68.42;101920.97;4924995;28;20047;-76
2023/06/14 05:19:20;;;;;;;7.15;2.10;;;;;;;24.33;68.20;101907.91;4945636;29;21164;-76
2023/06/14 05:21:47;;;;;;;4.13;2.37;;;;;;;24.76;65.80;101908.94;4942103;28;20054;-76
2023/06/14 05:24:17;;;;;;;6.20;2.40;;;;;;;24.86;66.24;101904.97;4929329;29;20788;-77
2023/06/14 05:26:45;;;;;;;5.13;2.40;;;;;;;25.10;64.25;101910.28;4951220;28;20046;-77
2023/06/14 05:29:15;;;;;;;5.88;1.95;;;;;;;25.21;62.69;101913.41;4905205;28;20047;-77
2023/06/14 05:31:43;;;;;;;6.25;1.88;;;;;;;25.54;62.86;101907.59;4918243;29;20050;-77
2023/06/14 05:34:10;;;;;;;4.40;2.70;;;;;;;26.03;60.82;101910.88;4929520;29;20043;-77
2023/06/14 05:36:38;;;;;;;5.95;2.22;;;;;;;26.37;57.83;101906.63;4965032;28;20045;-77
2023/06/14 05:39:06;;;;;;;8.13;2.35;;;;;;;26.56;56.34;101917.44;4908313;29;20585;-77
2023/06/14 05:41:34;;;;;;;4.45;1.67;;;;;;;26.80;55.71;101912.69;4918771;28;20446;-77
2023/06/14 05:44:02;;;;;;;3.50;1.80;;;;;;;26.88;54.87;101916.88;4945770;28;20050;-77
2023/06/14 05:46:30;;;;;;;3.10;2.10;;;;;;;27.16;54.45;101913.69;4902581;28;20425;-77
2023/06/14 05:48:58;;;;;;;2.35;1.80;;;;;;;27.51;53.01;101920.06;4952281;28;20055;-77
2023/06/14 05:51:26;;;;;;;3.78;2.00;;;;;;;27.65;51.51;101921.19;4950079;28;20051;-77
2023/06/14 05:53:54;;;;;;;2.22;1.98;;;;;;;27.63;50.65;101918.53;4958100;28;20051;-77
2023/06/14 05:56:22;;;;;;;4.93;2.40;;;;;;;27.63;49.63;101920.38;4924729;28;20047;-77
2023/06/14 05:58:49;;;;;;;3.20;1.80;;;;;;;27.46;49.02;101934.78;4937048;28;20054;-77
2023/06/14 06:01:16;;;;;;;5.60;2.30;;;;;;;27.11;48.35;101923.84;4905586;28;20055;-76
2023/06/14 06:03:47;;;;;;;4.13;2.08;;;;;;;26.77;48.63;101928.22;4921362;28;20051;-77
2023/06/14 06:06:16;;;;;;;4.30;1.92;;;;;;;26.80;49.60;101928.91;4922131;29;20055;-76
2023/06/14 06:08:43;;;;;;;5.60;2.40;;;;;;;26.83;47.42;101928.78;4938059;28;20050;-77
2023/06/14 06:11:11;;;;;;;6.72;2.20;;;;;;;26.74;48.29;101936.47;4915654;28;20045;-77
2023/06/14 06:13:39;;;;;;;6.95;2.50;;;;;;;26.21;48.08;101936.16;4887072;29;20046;-76
2023/06/14 06:16:06;;;;;;;7.40;2.28;;;;;;;25.96;49.28;101947.19;4910146;28;20101;-77
2023/06/14 06:18:34;;;;;;;5.13;2.58;;;;;;;25.81;48.78;101942.44;4922594;28;20085;-77
2023/06/14 06:21:03;;;;;;;3.50;2.10;;;;;;;25.39;49.89;101940.63;4910974;29;20066;-76
2023/06/14 06:23:30;;;;;;;8.00;2.33;;;;;;;25.04;51.10;101946.47;4933780;28;20043;-76
2023/06/14 06:26:00;;;;;;;6.38;2.35;;;;;;;24.81;52.47;101951.91;4968258;28;20059;-76
2023/06/14 06:28:27;;;;;;;4.40;2.65;;;;;;;24.87;52.68;101947.13;4932370;28;20059;-77
2023/06/14 06:30:55;;;;;;;5.90;2.10;;;;;;;24.76;51.89;101953.91;4943044;29;20050;-76
2023/06/14 06:33:23;;;;;;;4.40;2.45;;;;;;;24.67;54.28;101953.31;4906137;28;20047;-76
2023/06/14 06:35:51;;;;;;;6.57;2.35;;;;;;;24.56;52.63;101966.31;4909800;29;20051;-76
2023/06/14 06:38:18;;;;;;;4.57;1.98;;;;;;;24.36;53.49;101953.56;4919966;28;20057;-76
2023/06/14 06:40:46;;;;;;;5.53;2.10;;;;;;;24.22;53.33;101966.69;4933972;28;20055;-77
2023/06/14 06:43:13;;;;;;;5.03;2.28;;;;;;;24.10;54.39;101966.19;4933888;28;20040;-76
2023/06/14 06:45:45;;;;;;;4.82;2.08;;;;;;;23.70;54.71;101978.28;4947014;28;20062;-77
2023/06/14 06:48:13;;;;;;;4.47;2.35;;;;;;;23.24;55.86;101965.50;4937140;28;23325;-75
2023/06/14 06:50:40;;;;;;;5.03;2.28;;;;;;;22.99;58.21;101977.00;4953063;28;20525;-76
2023/06/14 06:53:08;;;;;;;5.65;2.78;;;;;;;22.64;58.83;101980.72;4942750;28;20047;-75
2023/06/14 06:55:35;;;;;;;6.43;2.25;;;;;;;22.36;61.44;101981.50;4937808;28;20047;-76
2023/06/14 06:58:05;;;;;;;7.57;2.75;;;;;;;22.32;63.62;101983.41;4936517;28;20055;-76
2023/06/14 07:00:32;;;;;;;4.38;2.20;;;;;;;22.37;62.33;101988.66;4946155;28;20054;-76
2023/06/14 07:03:00;;;;;;;7.07;2.50;;;;;;;22.10;62.49;101982.22;4943914;29;20054;-76
2023/06/14 07:05:27;;;;;;;4.60;2.40;;;;;;;21.90;64.03;101990.78;4922820;28;20054;-76
2023/06/14 07:07:55;;;;;;;5.97;2.20;;;;;;;21.97;65.69;101989.72;4926481;28;20828;-76
2023/06/14 07:10:24;;;;;;;4.32;1.98;;;;;;;22.03;66.21;101994.03;4917048;29;20047;-76
2023/06/14 07:12:52;;;;;;;8.77;2.35;;;;;;;21.96;65.78;101998.69;4927298;29;20814;-75
2023/06/14 07:15:19;;;;;;;6.22;2.20;;;;;;;21.74;67.44;102001.91;4913345;28;20051;-76
2023/06/14 07:17:47;;;;;;;2.45;1.90;;;;;;;21.73;68.57;101992.09;4920894;28;20054;-76
2023/06/14 07:20:15;;;;;;;2.97;2.28;;;;;;;21.55;69.28;102006.88;4913422;28;20055;-76
2023/06/14 07:22:43;;;;;;;2.13;1.90;;;;;;;21.54;70.71;102006.91;4907694;28;20066;-76
2023/06/14 07:25:14;;;;;;;5.85;2.80;;;;;;;21.46;69.48;102001.72;4938524;28;20794;-76
2023/06/14 07:27:43;;;;;;;4.13;1.77;;;;;;;21.36;70.74;101997.44;4951249;28;20051;-76
2023/06/14 07:30:11;;;;;;;2.85;2.40;;;;;;;21.50;71.49;102002.53;4931843;28;20058;-77
2023/06/14 07:32:38;;;;;;;2.08;1.95;;;;;;;21.59;71.21;102005.00;4944944;28;20047;-76
2023/06/14 07:35:06;;;;;;;7.13;2.40;;;;;;;21.62;71.36;102002.22;4932272;28;20051;-77
2023/06/14 07:37:34;;;;;;;3.38;2.10;;;;;;;21.58;68.77;102005.91;4906979;28;20043;-75
2023/06/14 07:40:06;;;;;;;4.70;2.20;;;;;;;21.42;68.31;102013.41;4969177;28;20052;-76
2023/06/14 07:42:35;;;;;;;2.63;1.95;;;;;;;21.26;68.83;102010.19;4948386;28;20051;-79
2023/06/14 07:45:06;;;;;;;3.35;1.75;;;;;;;21.21;70.01;102006.75;4951019;28;20048;-76
2023/06/14 07:47:36;;;;;;;5.43;2.30;;;;;;;21.18;70.74;102010.34;4936744;28;20054;-77
2023/06/14 07:50:03;;;;;;;4.05;2.30;;;;;;;21.20;71.11;102008.53;4979547;28;20054;-76
2023/06/14 07:52:33;;;;;;;;;;;;;;;21.27;74.38;102003.91;4907425;28;20054;-75
2023/06/14 07:55:02;;;;;;;6.88;1.90;;;;;;;21.39;71.29;102013.47;4926871;28;20400;-75
2023/06/14 07:57:29;;;;;;;3.85;2.10;;;;;;;21.49;72.20;102009.66;4943622;28;20117;-75
2023/06/14 07:59:57;;;;;;;2.60;2.30;;;;;;;21.55;71.67;102008.63;4936203;28;20054;-75
2023/06/14 08:02:24;;;;;;;4.90;2.60;;;;;;;21.60;71.65;102012.09;4926620;29;20066;-76
2023/06/14 08:04:52;;;;;;;4.03;2.47;;;;;;;21.54;71.33;102006.91;4947779;29;20050;-75
2023/06/14 08:07:20;;;;;;;3.58;2.33;;;;;;;21.54;72.29;102013.13;4906886;28;20059;-75
2023/06/14 08:09:47;;;;;;;5.30;2.00;;;;;;;21.54;70.67;102023.84;4932772;28;20058;-76
2023/06/14 08:12:15;;;;;;;2.67;2.47;;;;;;;21.44;72.42;102006.25;4948407;28;20047;-76
2023/06/14 08:14:44;;;;;;;2.92;2.00;;;;;;;21.47;72.23;102022.22;4969249;28;20055;-76
2023/06/14 08:17:12;;;;;;;7.47;2.20;;;;;;;21.43;73.02;102005.28;4943965;28;20074;-76
2023/06/14 08:19:41;;;;;;;4.10;2.30;;;;;;;21.36;73.42;102013.53;4944281;29;20445;-76
2023/06/14 08:22:12;;;;;;;5.45;2.65;;;;;;;21.32;73.37;102012.75;4886189;29;20051;-77
2023/06/14 08:24:40;;;;;;;3.45;2.53;;;;;;;21.31;72.78;102013.66;4936497;28;20044;-76
2023/06/14 08:27:08;;;;;;;5.00;2.58;;;;;;;21.16;71.94;102017.56;4920753;29;20083;-77
2023/06/14 08:29:40;;;;;;;5.95;1.95;;;;;;;21.13;73.75;102019.41;4934169;28;20066;-76
2023/06/14 08:32:08;;;;;;;3.83;2.13;;;;;;;21.16;72.88;102011.31;4935396;28;20058;-76
2023/06/14 08:34:35;;;;;;;3.28;2.25;;;;;;;21.26;72.81;102003.94;4967616;28;20050;-76
2023/06/14 08:37:03;;;;;;;3.60;2.30;;;;;;;21.37;72.56;101997.41;4875769;28;20055;-76
2023/06/14 08:39:31;;;;;;;5.85;2.30;;;;;;;21.53;73.79;102002.44;4936962;28;20047;-77
2023/06/14 08:42:08;;;;;;;3.58;2.25;;;;;;;21.63;72.08;101997.75;4921821;29;20039;-76
2023/06/14 08:44:45;;;;;;;5.68;2.00;;;;;;;21.69;71.11;102003.81;4919367;28;20087;-77
2023/06/14 08:47:18;;;;;;;3.67;2.03;;;;;;;21.68;68.87;102017.28;4977406;28;20035;-77
2023/06/14 08:49:49;;;;;;;5.43;2.33;;;;;;;21.53;69.82;102006.03;4922704;29;20054;-76
2023/06/14 08:52:20;;;;;;;6.27;2.20;;;;;;;21.47;69.29;102013.31;4942945;28;20043;-76
2023/06/14 08:54:50;;;;;;;4.40;1.95;;;;;;;21.51;69.08;102006.97;4868054;28;20494;-78
2023/06/14 08:57:20;;;;;;;4.55;2.30;;;;;;;21.56;68.12;102010.41;4953467;28;20128;-76
2023/06/14 08:59:53;;;;;;;2.30;2.10;;;;;;;21.53;67.61;101999.75;4939015;28;20425;-76
2023/06/14 09:02:22;;;;;;;6.53;2.30;;;;;;;21.65;68.07;102003.97;4902056;29;20059;-76
2023/06/14 09:04:50;;;;;;;3.07;2.20;;;;;;;21.63;67.60;102001.31;4951453;28;20387;-76
2023/06/14 09:07:19;;;;;;;2.47;1.70;;;;;;;21.61;66.29;102011.19;4971348;28;20048;-76
2023/06/14 09:09:46;;;;;;;2.50;1.67;;;;;;;21.64;68.45;102003.06;4932732;28;20043;-76
2023/06/14 09:12:32;;;;;;;3.40;1.92;;;;;;;21.78;66.59;102003.59;4935381;28;20051;-76
2023/06/14 09:15:00;;;;;;;4.57;1.80;;;;;;;21.81;66.86;102010.69;4950637;29;20039;-76
2023/06/14 09:17:27;;;;;;;5.80;2.00;;;;;;;21.93;66.38;102009.50;4925126;28;20059;-76
2023/06/14 09:19:55;;;;;;;1.67;1.58;;;;;;;22.09;68.24;102021.59;4962517;28;20070;-76
2023/06/14 09:22:23;;;;;;;4.57;1.98;;;;;;;22.18;65.12;102013.28;4937450;28;20062;-76
2023/06/14 09:24:50;;;;;;;2.97;2.35;;;;;;;22.24;65.15;102014.06;4877525;28;20059;-78
2023/06/14 09:27:18;;;;;;;3.30;1.73;;;;;;;22.23;65.36;102006.91;4900422;28;20075;-75
2023/06/14 09:29:46;;;;;;;5.75;1.85;;;;;;;22.31;64.45;102013.00;4932161;28;20054;-75
2023/06/14 09:32:14;;;;;;;3.55;2.00;;;;;;;22.35;64.53;102007.50;4930466;28;20059;-75
2023/06/14 09:34:42;;;;;;;3.78;1.80;;;;;;;22.34;62.52;102019.19;4972539;28;20114;-76
2023/06/14 09:37:09;;;;;;;3.00;1.58;;;;;;;22.29;63.03;102010.34;4891778;29;20866;-75
2023/06/14 09:39:57;;;;;;;4.10;1.85;;;;;;;22.31;60.47;102015.69;4920390;29;20052;-76
2023/06/14 09:42:28;;;;;;;5.82;2.40;;;;;;;22.33;62.33;102012.03;4870158;28;20438;-76
2023/06/14 09:44:56;;;;;;;3.28;1.80;;;;;;;22.35;60.80;102020.03;4965094;28;21135;-76
2023/06/14 09:47:25;;;;;;;2.72;1.90;;;;;;;22.29;61.45;102006.78;4919042;28;20067;-76
2023/06/14 09:49:54;;;;;;;3.75;1.90;;;;;;;22.18;61.56;102012.41;4940774;29;20047;-77
2023/06/14 09:52:26;;;;;;;5.63;1.83;;;;;;;22.13;61.21;102001.78;4947034;28;20054;-76
2023/06/14 09:54:55;;;;;;;3.20;1.95;;;;;;;22.23;61.78;102002.44;4938999;28;20525;-77
2023/06/14 09:57:23;;;;;;;5.45;1.95;;;;;;;22.38;61.51;102001.16;4911677;28;20487;-75
2023/06/14 09:59:56;;;;;;;1.95;1.73;;;;;;;22.40;59.70;101999.31;4941701;29;20059;-76
2023/06/14 10:02:35;;;;;;;6.45;1.83;;;;;;;22.47;61.51;102006.25;4930784;28;20482;-76
2023/06/14 10:05:11;;;;;;;2.20;1.50;;;;;;;22.57;59.94;102002.41;4931640;28;20057;-76
2023/06/14 10:07:40;;;;;;;7.50;1.90;;;;;;;22.61;59.71;102004.97;4934279;28;20123;-76
2023/06/14 10:10:08;;;;;;;3.25;2.10;;;;;;;22.71;59.16;102006.50;4937460;28;20047;-76
2023/06/14 10:12:36;;;;;;;4.25;2.08;;;;;;;22.78;58.35;102000.03;4897751;28;20051;-77
2023/06/14 10:15:05;;;;;;;5.40;1.80;;;;;;;22.86;60.25;102002.47;4930122;28;20043;-76
2023/06/14 10:18:06;;;;;;;1.70;1.60;;;;;;;23.02;57.04;102003.75;4932697;28;20051;-77
2023/06/14 10:21:11;;;;;;;4.22;1.27;;;;;;;23.17;55.40;102002.44;4946407;29;20058;-77
2023/06/14 10:23:42;;;;;;;3.72;1.75;;;;;;;22.97;55.11;102003.03;4932454;28;20534;-77
2023/06/14 10:26:23;;;;;;;3.58;1.60;;;;;;;22.97;54.56;101997.66;4941418;28;20046;-77
2023/06/14 10:29:01;;;;;;;2.15;1.95;;;;;;;23.09;55.33;101991.06;4905846;28;20886;-76
2023/06/14 10:31:43;;;;;;;7.50;2.75;;;;;;;23.12;56.01;101990.97;4947442;29;20058;-75
2023/06/14 10:34:12;;;;;;;3.10;1.60;;;;;;;23.07;56.29;101991.09;4942018;28;20792;-77
2023/06/14 10:36:42;;;;;;;1.60;1.50;;;;;;;23.23;55.29;101996.88;4943642;29;20054;-76
2023/06/14 10:39:17;;;;;;;3.17;2.10;;;;;;;23.27;54.36;101979.72;4935354;28;20047;-76
2023/06/14 10:41:56;;;;;;;3.88;1.90;;;;;;;23.35;54.43;101979.47;4942871;28;20054;-76
2023/06/14 10:44:23;;;;;;;6.60;2.10;;;;;;;23.34;54.36;101983.94;4889106;28;20047;-76
2023/06/14 10:46:54;;;;;;;3.63;2.25;;;;;;;23.33;54.23;101984.03;4930878;28;20055;-75
2023/06/14 10:49:43;;;;;;;2.83;1.67;;;;;;;23.31;56.03;101980.50;4943343;29;20051;-76
2023/06/14 10:52:18;;;;;;;5.28;1.80;;;;;;;23.52;55.72;101982.47;4942273;29;20043;-76
2023/06/14 10:55:18;;;;;;;2.58;1.52;;;;;;;23.63;52.74;101992.00;4909915;28;20062;-76
2023/06/14 10:57:57;;;;;;;4.10;1.73;;;;;;;23.47;54.26;101976.38;4944095;28;20059;-76
2023/06/14 11:00:26;;;;;;;4.72;1.48;;;;;;;23.68;54.28;101980.16;4906102;28;20074;-76
2023/06/14 11:03:10;;;;;;;4.75;2.00;;;;;;;23.89;52.85;101975.00;4947541;28;20063;-81
2023/06/14 11:05:53;;;;;;;5.18;1.50;;;;;;;24.00;50.75;101982.72;4946809;29;20043;-77
2023/06/14 11:08:42;;;;;;;9.25;2.25;;;;;;;24.08;52.58;101976.13;4948091;28;20059;-76
2023/06/14 11:11:12;;;;;;;3.67;1.48;;;;;;;24.19;51.77;101988.31;4943786;28;20073;-76
2023/06/14 11:13:44;;;;;;;3.10;1.67;;;;;;;24.12;50.92;101979.56;4938821;28;20047;-77
2023/06/14 11:16:18;;;;;;;2.78;1.40;;;;;;;24.22;50.78;101985.53;4908393;28;20732;-76
2023/06/14 11:18:46;;;;;;;9.02;1.90;;;;;;;24.30;49.90;101978.03;4936527;28;20069;-77
2023/06/14 11:21:20;;;;;;;5.93;1.10;;;;;;;24.37;48.92;101978.72;4962415;28;20055;-76
2023/06/14 11:23:52;;;;;;;4.60;1.40;;;;;;;24.43;49.99;101965.00;4943779;29;20055;-76
2023/06/14 11:26:45;;;;;;;3.05;1.38;;;;;;;24.54;48.35;101967.31;4939594;28;20095;-77
2023/06/14 11:29:12;;;;;;;3.00;1.73;;;;;;;24.34;48.88;101966.22;4941172;28;20055;-77
2023/06/14 11:31:44;;;;;;;5.75;1.25;;;;;;;24.17;48.96;101965.94;4943505;28;20047;-76
2023/06/14 11:34:13;;;;;;;2.75;1.40;;;;;;;24.19;48.93;101964.09;4944896;28;20054;-76
2023/06/14 11:36:41;;;;;;;2.75;1.10;;;;;;;24.09;49.21;101972.47;4944314;28;20654;-76
2023/06/14 11:39:09;;;;;;;2.80;1.13;;;;;;;24.22;48.00;101954.06;4965284;28;20047;-77